Aérodrome :
LOGIN :

S'inscrire | Disclaimer

   EN    FR    IT 

 










Légende :    VFR   VFR Marginal   IFR   IFR Intensif   IFR Très Intensif
Visi : 
Plafond : 
>= 8 km
>= 3000ft
5 à 8 km
1000 à 3000 ft
1500m à 5 km
500 à 1000 ft
800 à 1500m
200 à 500 ft
< 800m
< 200 ft
Symboles :   Orages  Brouillard  Fortes neiges  Fortes précipitations  Vent > 20 kt
SIGMETs :   Divers  Orages  Givrage  Turbulence  Onde Orograph.  Cendres Volcan.






- Altitude de l'aérodrome : 92 ft


EGXZ - RAP Topcliffe

DERNIER METAR :
  • 181250Z AUTO 24011KT 8000 -RA OVC030/// 09/05 Q1019

METARs EXPIRÉS :
  • 181220Z AUTO 26014KT 9999 -RA OVC028/// 10/04 Q1019
  • 181150Z AUTO 25011KT 9999 -RA OVC031/// 10/04 Q1020
  • 181120Z AUTO 25012KT 9999 FEW031/// SCT087/// 10/03 Q1020
  • 181050Z AUTO 23012KT 9999 OVC110/// 09/03 Q1020
  • 181020Z AUTO 21005KT 9999 OVC110/// 09/03 Q1021
  • 180950Z AUTO 14005KT 9999 OVC110/// 08/04 Q1021
  • 180920Z AUTO 14005KT 9999 // OVC110/// 06/03 Q1021
  • 180850Z AUTO 15004KT 9999 // SCT130/// 05/03 Q1022
  • 180820Z AUTO 16003KT 9999 FEW140/// 05/03 Q1022

Prévision TAF périmée.



MET'MAP, la Météo Aéronautique d'un coup d'oeil ! - Copyright ORBIFLY Décembre 2007 - Disclaimer

ORBIFLY MET'MAP TEAM :

Programmation & Développement : Alexandra Zaïnal
Sur une idée originale de : Baudouin d'Aumeries
Soutien technique & logistique : Manuel Goepfert
Assistance : Marc-Olivier Méhu




SOURCES & CREDITS :

   NOAA